Albert Maersk — OUOW2 — position and weather

sailwx.info

Track history (hours):
 
Tides and Currents Weather Stations Pressure Air Temp Water Temp Dewpoint Dewpoint Depression Visibility Wind Speed Wind Dir Waves Ship Positions

Albert Maersk

Last reported at 2018-Apr-25 05:00 UTC. Time now 2018-Apr-25 05:11 UTC.
Position N 36°52' W 076°21'.

MMSI: 220259928.

Date/timePositionNaut miles runAvg speedWind from/ knotsBaromVisibWave heightAir tempDewpointWater temp
2018-Apr-25 05:00N 36°52' W 076°21'0 0.0
2018-Apr-25 04:27N 36°52' W 076°21'0 0.0
2018-Apr-25 04:00N 36°52' W 076°21'0 0.0
2018-Apr-25 03:30N 36°52' W 076°21'0 0.0
2018-Apr-25 03:00N 36°52' W 076°21'0 0.0
2018-Apr-25 02:30N 36°52' W 076°21'0 0.0
2018-Apr-25 02:00N 36°52' W 076°21'0 0.0
2018-Apr-25 01:30N 36°52' W 076°21'0 0.0
2018-Apr-25 01:00N 36°52' W 076°21'0 0.0
2018-Apr-25 00:30N 36°52' W 076°21'0 0.0
2018-Apr-25 00:00N 36°52' W 076°21'0 0.0
2018-Apr-24 23:15N 36°52' W 076°21'0 0.0
2018-Apr-24 22:54N 36°52' W 076°21'0 0.0
2018-Apr-24 22:30N 36°52' W 076°21'0 0.0
2018-Apr-24 21:57N 36°52' W 076°21'0 0.0
2018-Apr-24 21:21N 36°52' W 076°21'0 0.0
2018-Apr-24 21:00N 36°52' W 076°21'0 0.0
2018-Apr-24 20:30N 36°52' W 076°21'0 0.0
2018-Apr-24 19:57N 36°52' W 076°21'0 0.0
2018-Apr-24 19:30N 36°52' W 076°21'0 0.0
2018-Apr-24 18:57N 36°52' W 076°21'0 0.0
2018-Apr-24 18:30N 36°52' W 076°21'0 0.0
2018-Apr-24 18:00N 36°52' W 076°21'0 0.0
2018-Apr-24 17:30N 36°52' W 076°21'0 0.0
2018-Apr-24 16:57N 36°52' W 076°21'0 0.0
2018-Apr-24 16:30N 36°52' W 076°21'0 0.0
2018-Apr-24 16:00N 36°52' W 076°21'1 1.6
2018-Apr-24 15:30N 36°53' W 076°20'3 6.2
2018-Apr-24 15:00N 36°56' W 076°20'5 8.4
2018-Apr-24 14:28N 36°60' W 076°18'714.8
2018-Apr-24 14:00N 36°59' W 076°09'714.9
2018-Apr-24 13:30N 36°57' W 076°00'4 8.8
2018-Apr-24 13:00N 36°55' W 075°55'5 9.5
2018-Apr-24 12:30N 36°52' W 075°51'4 8.8
2018-Apr-24 12:00N 36°50' W 075°46'1 0.4
2018-Apr-24 10:35N 36°50' W 075°47'0 3.7
2018-Apr-24 10:30N 36°50' W 075°47'4 2.4
2018-Apr-24 08:48N 36°51' W 075°51'2 4.0
2018-Apr-24 08:24N 36°52' W 075°53'2 3.8
2018-Apr-24 08:00N 36°53' W 075°54'2 4.0
2018-Apr-24 07:30N 36°55' W 075°56'2 3.9
2018-Apr-24 06:59N 36°56' W 075°58'2 4.0
2018-Apr-24 06:30N 36°57' W 075°60'510.9
2018-Apr-24 06:00N 37°02' W 076°03'815.2
2018-Apr-24 05:31N 37°08' W 076°09'4715.7
2018-Apr-24 02:29N 37°55' W 076°09'816.8
2018-Apr-24 02:00N 38°03' W 076°13'917.9
2018-Apr-24 01:30N 38°12' W 076°15'3417.5
2018-Apr-23 23:33N 38°45' W 076°26'118.5
2018-Apr-23 23:31N 38°46' W 076°26'918.5
2018-Apr-23 23:00N 38°55' W 076°23'815.6
2018-Apr-23 22:30N 39°03' W 076°23'612.9
2018-Apr-23 22:00N 39°09' W 076°25'612.0
2018-Apr-23 21:30N 39°12' W 076°31'3 5.3
2018-Apr-23 21:00N 39°15' W 076°32'0 0.4
2018-Apr-23 20:28N 39°15' W 076°33'0 0.0
2018-Apr-23 19:58N 39°15' W 076°33'0 0.0
2018-Apr-23 19:28N 39°15' W 076°33'0 0.0
2018-Apr-23 18:58N 39°15' W 076°33'0 0.0
2018-Apr-23 18:28N 39°15' W 076°33'0 0.0
2018-Apr-23 17:58N 39°15' W 076°33'0 0.0
2018-Apr-23 17:28N 39°15' W 076°33'0 0.0
2018-Apr-23 16:58N 39°15' W 076°33'0 0.0
2018-Apr-23 16:28N 39°15' W 076°33'0 0.0
2018-Apr-23 15:58N 39°15' W 076°33'0 0.0
2018-Apr-23 15:28N 39°15' W 076°33'0 0.0
2018-Apr-23 14:58N 39°15' W 076°33'0 0.0
2018-Apr-23 14:28N 39°15' W 076°33'0 0.0
2018-Apr-23 13:58N 39°15' W 076°33'0 0.0
2018-Apr-23 13:28N 39°15' W 076°33'0 0.0
2018-Apr-23 12:58N 39°15' W 076°33'0 0.0
2018-Apr-23 12:25N 39°15' W 076°33'0 0.0
2018-Apr-23 11:58N 39°15' W 076°33'0 0.0
2018-Apr-23 11:28N 39°15' W 076°33'0 0.0
2018-Apr-23 10:58N 39°15' W 076°33'0 0.0
2018-Apr-23 10:28N 39°15' W 076°33'0 0.0
2018-Apr-23 09:58N 39°15' W 076°33'0 0.0
2018-Apr-23 09:28N 39°15' W 076°33'0 0.0
2018-Apr-23 08:58N 39°15' W 076°33'0 0.0
2018-Apr-23 08:28N 39°15' W 076°33'0 0.0
2018-Apr-23 07:58N 39°15' W 076°33'0 0.0
2018-Apr-23 07:28N 39°15' W 076°33'0 0.0
2018-Apr-23 06:58N 39°15' W 076°33'0 0.0
2018-Apr-23 06:28N 39°15' W 076°33'0 0.0
2018-Apr-23 05:58N 39°15' W 076°33'0 0.0
2018-Apr-23 05:28N 39°15' W 076°33'0 0.0
2018-Apr-23 04:58N 39°15' W 076°33'0 0.0
2018-Apr-23 04:28N 39°15' W 076°33'0 0.0
2018-Apr-23 03:58N 39°15' W 076°33'0 0.0
2018-Apr-23 03:28N 39°15' W 076°33'0 0.0
2018-Apr-23 02:58N 39°15' W 076°33'0 0.0
2018-Apr-23 02:28N 39°15' W 076°33'0 0.0
2018-Apr-23 01:58N 39°15' W 076°33'0 0.0
2018-Apr-23 01:28N 39°15' W 076°33'0 0.0
2018-Apr-23 00:58N 39°15' W 076°33'0 0.0
2018-Apr-23 00:28N 39°15' W 076°33'0 0.0
2018-Apr-22 23:58N 39°15' W 076°33'0 0.0
2018-Apr-22 23:28N 39°15' W 076°33'0 0.0
2018-Apr-22 22:58N 39°15' W 076°33'0 0.0
2018-Apr-22 22:28N 39°15' W 076°33'0 0.0
2018-Apr-22 21:58N 39°15' W 076°33'0 0.0
2018-Apr-22 21:28N 39°15' W 076°33'0 0.0
2018-Apr-22 20:58N 39°15' W 076°33'0 0.0
2018-Apr-22 20:28N 39°15' W 076°33'0 0.0
2018-Apr-22 19:58N 39°15' W 076°33'0 0.0
2018-Apr-22 19:28N 39°15' W 076°33'0 0.0
2018-Apr-22 18:58N 39°15' W 076°33'0 0.0
2018-Apr-22 18:28N 39°15' W 076°33'0 0.0
2018-Apr-22 17:58N 39°15' W 076°33'0 0.0
2018-Apr-22 17:28N 39°15' W 076°33'0 0.0
2018-Apr-22 16:58N 39°15' W 076°33'0 0.0
2018-Apr-22 16:28N 39°15' W 076°33'0 0.0
2018-Apr-22 15:58N 39°15' W 076°33'0 0.0
2018-Apr-22 15:28N 39°15' W 076°33'0 0.0
2018-Apr-22 14:58N 39°15' W 076°33'0 0.0
2018-Apr-22 14:28N 39°15' W 076°33'0 0.0
2018-Apr-22 13:58N 39°15' W 076°33'0 0.0
2018-Apr-22 13:28N 39°15' W 076°33'0 0.0
2018-Apr-22 12:58N 39°15' W 076°33'0 0.0
2018-Apr-22 12:28N 39°15' W 076°33'0 0.0
2018-Apr-22 11:58N 39°15' W 076°33'0 0.0
2018-Apr-22 11:28N 39°15' W 076°33'0 0.0
2018-Apr-22 10:58N 39°15' W 076°33'0 0.0
2018-Apr-22 10:28N 39°15' W 076°33'0 0.0
2018-Apr-22 09:58N 39°15' W 076°33'0 0.0
2018-Apr-22 09:28N 39°15' W 076°33'0 0.0
2018-Apr-22 08:58N 39°15' W 076°33'0 0.6
2018-Apr-22 08:31N 39°15' W 076°32'2 4.0
2018-Apr-22 08:01N 39°13' W 076°32'4 8.9
2018-Apr-22 07:31N 39°11' W 076°27'612.1
2018-Apr-22 07:01N 39°05' W 076°24'714.4
2018-Apr-22 06:31N 38°58' W 076°23'917.9
2018-Apr-22 06:01N 38°49' W 076°25'918.0
2018-Apr-22 05:30N 38°40' W 076°25'917.7
2018-Apr-22 05:00N 38°31' W 076°25'918.1
2018-Apr-22 04:29N 38°23' W 076°20'1118.3
2018-Apr-22 03:54N 38°13' W 076°15'6816.1
2018-Apr-21 23:40N 37°04' W 076°06'215.2
2018-Apr-21 23:30N 37°03' W 076°04'713.7
2018-Apr-21 23:00N 36°57' W 075°59'4 8.9
2018-Apr-21 22:30N 36°55' W 075°54'4 8.3
2018-Apr-21 22:00N 36°52' W 075°50'5 8.7
2018-Apr-21 21:29N 36°50' W 075°46'17712.2
2018-Apr-21 07:00N 39°26' W 073°58'713.2
2018-Apr-21 06:29N 39°32' W 073°56'613.1
2018-Apr-21 06:00N 39°38' W 073°53'612.6
2018-Apr-21 05:30N 39°44' W 073°51'712.7
2018-Apr-21 04:59N 39°51' W 073°51'712.5
2018-Apr-21 04:27N 39°57' W 073°51'2410.8
2018-Apr-21 02:14N 40°21' W 073°49'2 9.1
2018-Apr-21 02:00N 40°24' W 073°49'4 8.8
2018-Apr-21 01:30N 40°28' W 073°51'5 9.6
2018-Apr-21 01:00N 40°30' W 073°57'612.6
2018-Apr-21 00:30N 40°35' W 074°02'5 9.8
2018-Apr-21 00:00N 40°39' W 074°05'3 5.9
2018-Apr-20 23:30N 40°39' W 074°09'1 2.9
2018-Apr-20 23:00N 40°40' W 074°08'0 0.2
2018-Apr-20 22:28N 40°40' W 074°09'0 0.0
2018-Apr-20 21:58N 40°40' W 074°09'0 0.0
2018-Apr-20 21:28N 40°40' W 074°09'0 0.0
2018-Apr-20 20:58N 40°40' W 074°09'0 0.0
2018-Apr-20 20:28N 40°40' W 074°09'0 0.0
2018-Apr-20 19:58N 40°40' W 074°09'0 0.0
2018-Apr-20 19:28N 40°40' W 074°09'0 0.0
2018-Apr-20 18:58N 40°40' W 074°09'0 0.0
2018-Apr-20 18:28N 40°40' W 074°09'0 0.0
2018-Apr-20 17:55N 40°40' W 074°09'0 0.0
2018-Apr-20 17:28N 40°40' W 074°09'0 0.0
2018-Apr-20 16:55N 40°40' W 074°09'0 0.0
2018-Apr-20 16:22N 40°40' W 074°09'0 0.0
2018-Apr-20 15:58N 40°40' W 074°09'0 0.0
2018-Apr-20 15:28N 40°40' W 074°09'0 0.0
2018-Apr-20 14:58N 40°40' W 074°09'0 0.0
2018-Apr-20 14:28N 40°40' W 074°09'0 0.0
2018-Apr-20 13:58N 40°40' W 074°09'0 0.0
2018-Apr-20 13:28N 40°40' W 074°09'0 0.0
2018-Apr-20 12:52N 40°40' W 074°09'0 0.0
2018-Apr-20 12:28N 40°40' W 074°09'0 0.0
2018-Apr-20 11:58N 40°40' W 074°09'0 0.0
2018-Apr-20 11:28N 40°40' W 074°09'0 0.0
2018-Apr-20 10:58N 40°40' W 074°09'0 0.0
2018-Apr-20 10:28N 40°40' W 074°09'0 0.0
2018-Apr-20 09:58N 40°40' W 074°09'0 0.0
2018-Apr-20 09:28N 40°40' W 074°09'0 0.0
2018-Apr-20 08:58N 40°40' W 074°09'0 0.0
2018-Apr-20 08:25N 40°40' W 074°09'0 0.0
2018-Apr-20 07:58N 40°40' W 074°09'0 0.0
2018-Apr-20 07:28N 40°40' W 074°09'0 0.0
2018-Apr-20 06:58N 40°40' W 074°09'0 0.0
2018-Apr-20 06:28N 40°40' W 074°09'0 0.0
2018-Apr-20 05:55N 40°40' W 074°09'0 0.0
2018-Apr-20 05:25N 40°40' W 074°09'0 0.0
2018-Apr-20 04:58N 40°40' W 074°09'0 0.0
2018-Apr-20 04:28N 40°40' W 074°09'0 0.0
2018-Apr-20 03:58N 40°40' W 074°09'0 0.0
2018-Apr-20 03:28N 40°40' W 074°09'0 0.0
2018-Apr-20 02:55N 40°40' W 074°09'0 0.0
2018-Apr-20 02:28N 40°40' W 074°09'0 0.0
2018-Apr-20 01:58N 40°40' W 074°09'0 0.0
2018-Apr-20 01:25N 40°40' W 074°09'0 0.0
2018-Apr-20 00:58N 40°40' W 074°09'0 0.0
2018-Apr-20 00:28N 40°40' W 074°09'0 0.0
2018-Apr-19 23:58N 40°40' W 074°09'0 0.0
2018-Apr-19 23:28N 40°40' W 074°09'0 0.0
2018-Apr-19 22:58N 40°40' W 074°09'0 0.0
2018-Apr-19 22:28N 40°40' W 074°09'0 0.0
2018-Apr-19 21:58N 40°40' W 074°09'0 0.0
2018-Apr-19 21:19N 40°40' W 074°09'0 0.0
2018-Apr-19 20:58N 40°40' W 074°09'0 0.0
2018-Apr-19 20:13N 40°40' W 074°09'0 0.0
2018-Apr-19 19:58N 40°40' W 074°09'0 0.0
2018-Apr-19 19:28N 40°40' W 074°09'0 0.0
2018-Apr-19 18:58N 40°40' W 074°09'0 0.0
2018-Apr-19 18:28N 40°40' W 074°09'0 0.0
2018-Apr-19 17:58N 40°40' W 074°09'0 0.0
2018-Apr-19 17:28N 40°40' W 074°09'0 0.0
2018-Apr-19 16:58N 40°40' W 074°09'0 0.0
2018-Apr-19 16:28N 40°40' W 074°09'0 0.0
2018-Apr-19 15:58N 40°40' W 074°09'0 0.0
2018-Apr-19 15:25N 40°40' W 074°09'0 0.0
2018-Apr-19 14:58N 40°40' W 074°09'0 0.0
2018-Apr-19 14:28N 40°40' W 074°09'0 0.0
2018-Apr-19 13:58N 40°40' W 074°09'0 0.0
2018-Apr-19 13:28N 40°40' W 074°09'0 0.0
2018-Apr-19 12:58N 40°40' W 074°09'0 0.0
2018-Apr-19 12:25N 40°40' W 074°09'0 0.0
2018-Apr-19 11:58N 40°40' W 074°09'0 0.0
2018-Apr-19 11:25N 40°40' W 074°09'0 0.0
2018-Apr-19 10:58N 40°40' W 074°09'0 0.0
2018-Apr-19 10:28N 40°40' W 074°09'0 0.0
2018-Apr-19 09:58N 40°40' W 074°09'0 0.0
2018-Apr-19 09:28N 40°40' W 074°09'0 0.0
2018-Apr-19 08:58N 40°40' W 074°09'0 0.0
2018-Apr-19 08:28N 40°40' W 074°09'0 0.0
2018-Apr-19 07:58N 40°40' W 074°09'0 0.0
2018-Apr-19 07:28N 40°40' W 074°09'0 0.0
2018-Apr-19 06:58N 40°40' W 074°09'0 0.0
2018-Apr-19 06:28N 40°40' W 074°09'0 0.0
2018-Apr-19 05:58N 40°40' W 074°09'0 0.0
2018-Apr-19 05:28N 40°40' W 074°09'0 0.0
2018-Apr-19 04:58N 40°40' W 074°09'0 0.0
2018-Apr-19 04:28N 40°40' W 074°09'0 0.0
2018-Apr-19 03:58N 40°40' W 074°09'0 0.0
2018-Apr-19 03:28N 40°40' W 074°09'0 0.0
2018-Apr-19 02:58N 40°40' W 074°09'0 0.0
2018-Apr-19 02:28N 40°40' W 074°09'0 0.0
2018-Apr-19 01:58N 40°40' W 074°09'0 0.0
2018-Apr-19 01:28N 40°40' W 074°09'0 0.0
2018-Apr-19 00:52N 40°40' W 074°09'0 0.0
2018-Apr-19 00:28N 40°40' W 074°09'0 0.0
2018-Apr-18 23:58N 40°40' W 074°09'0 0.0
2018-Apr-18 23:28N 40°40' W 074°09'0 0.0
2018-Apr-18 22:58N 40°40' W 074°09'0 0.0
2018-Apr-18 22:28N 40°40' W 074°09'0 0.0
2018-Apr-18 21:58N 40°40' W 074°09'0 0.0
2018-Apr-18 21:30N 40°40' W 074°09'1 2.9
2018-Apr-18 21:00N 40°39' W 074°08'3 5.5
2018-Apr-18 20:30N 40°39' W 074°05'3 6.9
2018-Apr-18 20:00N 40°36' W 074°03'612.3
2018-Apr-18 19:30N 40°31' W 073°59'713.7
2018-Apr-18 19:00N 40°28' W 073°50'3 6.8
2018-Apr-18 18:30N 40°25' W 073°47'3 6.2
2018-Apr-18 18:01N 40°23' W 073°46'5 8.7
2018-Apr-18 17:29N 40°18' W 073°45'5 9.6
2018-Apr-18 17:01N 40°13' W 073°45'29 8.8
2018-Apr-18 13:42N 39°45' W 073°39'2 8.7
2018-Apr-18 13:27N 39°42' W 073°39'5 8.9
2018-Apr-18 12:55N 39°38' W 073°39'  
Track history (hours):
 
Tides and Currents Weather Stations Pressure Air Temp Water Temp Dewpoint Dewpoint Depression Visibility Wind Speed Wind Dir Waves Ship Positions

Albert Maersk

Last reported at 2018-Apr-25 05:00 UTC. Time now 2018-Apr-25 05:11 UTC.
Position N 36°52' W 076°21'.

MMSI: 220259928.

Date/timePositionNaut miles runAvg speedWind from/ knotsBaromVisibWave heightAir tempDewpointWater temp
2018-Apr-25 05:00N 36°52' W 076°21'0 0.0
2018-Apr-25 04:27N 36°52' W 076°21'0 0.0
2018-Apr-25 04:00N 36°52' W 076°21'0 0.0
2018-Apr-25 03:30N 36°52' W 076°21'0 0.0
2018-Apr-25 03:00N 36°52' W 076°21'0 0.0
2018-Apr-25 02:30N 36°52' W 076°21'0 0.0
2018-Apr-25 02:00N 36°52' W 076°21'0 0.0
2018-Apr-25 01:30N 36°52' W 076°21'0 0.0
2018-Apr-25 01:00N 36°52' W 076°21'0 0.0
2018-Apr-25 00:30N 36°52' W 076°21'0 0.0
2018-Apr-25 00:00N 36°52' W 076°21'0 0.0
2018-Apr-24 23:15N 36°52' W 076°21'0 0.0
2018-Apr-24 22:54N 36°52' W 076°21'0 0.0
2018-Apr-24 22:30N 36°52' W 076°21'0 0.0
2018-Apr-24 21:57N 36°52' W 076°21'0 0.0
2018-Apr-24 21:21N 36°52' W 076°21'0 0.0
2018-Apr-24 21:00N 36°52' W 076°21'0 0.0
2018-Apr-24 20:30N 36°52' W 076°21'0 0.0
2018-Apr-24 19:57N 36°52' W 076°21'0 0.0
2018-Apr-24 19:30N 36°52' W 076°21'0 0.0
2018-Apr-24 18:57N 36°52' W 076°21'0 0.0
2018-Apr-24 18:30N 36°52' W 076°21'0 0.0
2018-Apr-24 18:00N 36°52' W 076°21'0 0.0
2018-Apr-24 17:30N 36°52' W 076°21'0 0.0
2018-Apr-24 16:57N 36°52' W 076°21'0 0.0
2018-Apr-24 16:30N 36°52' W 076°21'0 0.0
2018-Apr-24 16:00N 36°52' W 076°21'1 1.6
2018-Apr-24 15:30N 36°53' W 076°20'3 6.2
2018-Apr-24 15:00N 36°56' W 076°20'5 8.4
2018-Apr-24 14:28N 36°60' W 076°18'714.8
2018-Apr-24 14:00N 36°59' W 076°09'714.9
2018-Apr-24 13:30N 36°57' W 076°00'4 8.8
2018-Apr-24 13:00N 36°55' W 075°55'5 9.5
2018-Apr-24 12:30N 36°52' W 075°51'4 8.8
2018-Apr-24 12:00N 36°50' W 075°46'1 0.4
2018-Apr-24 10:35N 36°50' W 075°47'0 3.7
2018-Apr-24 10:30N 36°50' W 075°47'4 2.4
2018-Apr-24 08:48N 36°51' W 075°51'2 4.0
2018-Apr-24 08:24N 36°52' W 075°53'2 3.8
2018-Apr-24 08:00N 36°53' W 075°54'2 4.0
2018-Apr-24 07:30N 36°55' W 075°56'2 3.9
2018-Apr-24 06:59N 36°56' W 075°58'2 4.0
2018-Apr-24 06:30N 36°57' W 075°60'510.9
2018-Apr-24 06:00N 37°02' W 076°03'815.2
2018-Apr-24 05:31N 37°08' W 076°09'4715.7
2018-Apr-24 02:29N 37°55' W 076°09'816.8
2018-Apr-24 02:00N 38°03' W 076°13'917.9
2018-Apr-24 01:30N 38°12' W 076°15'3417.5
2018-Apr-23 23:33N 38°45' W 076°26'118.5
2018-Apr-23 23:31N 38°46' W 076°26'918.5
2018-Apr-23 23:00N 38°55' W 076°23'815.6
2018-Apr-23 22:30N 39°03' W 076°23'612.9
2018-Apr-23 22:00N 39°09' W 076°25'612.0
2018-Apr-23 21:30N 39°12' W 076°31'3 5.3
2018-Apr-23 21:00N 39°15' W 076°32'0 0.4
2018-Apr-23 20:28N 39°15' W 076°33'0 0.0
2018-Apr-23 19:58N 39°15' W 076°33'0 0.0
2018-Apr-23 19:28N 39°15' W 076°33'0 0.0
2018-Apr-23 18:58N 39°15' W 076°33'0 0.0
2018-Apr-23 18:28N 39°15' W 076°33'0 0.0
2018-Apr-23 17:58N 39°15' W 076°33'0 0.0
2018-Apr-23 17:28N 39°15' W 076°33'0 0.0
2018-Apr-23 16:58N 39°15' W 076°33'0 0.0
2018-Apr-23 16:28N 39°15' W 076°33'0 0.0
2018-Apr-23 15:58N 39°15' W 076°33'0 0.0
2018-Apr-23 15:28N 39°15' W 076°33'0 0.0
2018-Apr-23 14:58N 39°15' W 076°33'0 0.0
2018-Apr-23 14:28N 39°15' W 076°33'0 0.0
2018-Apr-23 13:58N 39°15' W 076°33'0 0.0
2018-Apr-23 13:28N 39°15' W 076°33'0 0.0
2018-Apr-23 12:58N 39°15' W 076°33'0 0.0
2018-Apr-23 12:25N 39°15' W 076°33'0 0.0
2018-Apr-23 11:58N 39°15' W 076°33'0 0.0
2018-Apr-23 11:28N 39°15' W 076°33'0 0.0
2018-Apr-23 10:58N 39°15' W 076°33'0 0.0
2018-Apr-23 10:28N 39°15' W 076°33'0 0.0
2018-Apr-23 09:58N 39°15' W 076°33'0 0.0
2018-Apr-23 09:28N 39°15' W 076°33'0 0.0
2018-Apr-23 08:58N 39°15' W 076°33'0 0.0
2018-Apr-23 08:28N 39°15' W 076°33'0 0.0
2018-Apr-23 07:58N 39°15' W 076°33'0 0.0
2018-Apr-23 07:28N 39°15' W 076°33'0 0.0
2018-Apr-23 06:58N 39°15' W 076°33'0 0.0
2018-Apr-23 06:28N 39°15' W 076°33'0 0.0
2018-Apr-23 05:58N 39°15' W 076°33'0 0.0
2018-Apr-23 05:28N 39°15' W 076°33'0 0.0
2018-Apr-23 04:58N 39°15' W 076°33'0 0.0
2018-Apr-23 04:28N 39°15' W 076°33'0 0.0
2018-Apr-23 03:58N 39°15' W 076°33'0 0.0
2018-Apr-23 03:28N 39°15' W 076°33'0 0.0
2018-Apr-23 02:58N 39°15' W 076°33'0 0.0
2018-Apr-23 02:28N 39°15' W 076°33'0 0.0
2018-Apr-23 01:58N 39°15' W 076°33'0 0.0
2018-Apr-23 01:28N 39°15' W 076°33'0 0.0
2018-Apr-23 00:58N 39°15' W 076°33'0 0.0
2018-Apr-23 00:28N 39°15' W 076°33'0 0.0
2018-Apr-22 23:58N 39°15' W 076°33'0 0.0
2018-Apr-22 23:28N 39°15' W 076°33'0 0.0
2018-Apr-22 22:58N 39°15' W 076°33'0 0.0
2018-Apr-22 22:28N 39°15' W 076°33'0 0.0
2018-Apr-22 21:58N 39°15' W 076°33'0 0.0
2018-Apr-22 21:28N 39°15' W 076°33'0 0.0
2018-Apr-22 20:58N 39°15' W 076°33'0 0.0
2018-Apr-22 20:28N 39°15' W 076°33'0 0.0
2018-Apr-22 19:58N 39°15' W 076°33'0 0.0
2018-Apr-22 19:28N 39°15' W 076°33'0 0.0
2018-Apr-22 18:58N 39°15' W 076°33'0 0.0
2018-Apr-22 18:28N 39°15' W 076°33'0 0.0
2018-Apr-22 17:58N 39°15' W 076°33'0 0.0
2018-Apr-22 17:28N 39°15' W 076°33'0 0.0
2018-Apr-22 16:58N 39°15' W 076°33'0 0.0
2018-Apr-22 16:28N 39°15' W 076°33'0 0.0
2018-Apr-22 15:58N 39°15' W 076°33'0 0.0
2018-Apr-22 15:28N 39°15' W 076°33'0 0.0
2018-Apr-22 14:58N 39°15' W 076°33'0 0.0
2018-Apr-22 14:28N 39°15' W 076°33'0 0.0
2018-Apr-22 13:58N 39°15' W 076°33'0 0.0
2018-Apr-22 13:28N 39°15' W 076°33'0 0.0
2018-Apr-22 12:58N 39°15' W 076°33'0 0.0
2018-Apr-22 12:28N 39°15' W 076°33'0 0.0
2018-Apr-22 11:58N 39°15' W 076°33'0 0.0
2018-Apr-22 11:28N 39°15' W 076°33'0 0.0
2018-Apr-22 10:58N 39°15' W 076°33'0 0.0
2018-Apr-22 10:28N 39°15' W 076°33'0 0.0
2018-Apr-22 09:58N 39°15' W 076°33'0 0.0
2018-Apr-22 09:28N 39°15' W 076°33'0 0.0
2018-Apr-22 08:58N 39°15' W 076°33'0 0.6
2018-Apr-22 08:31N 39°15' W 076°32'2 4.0
2018-Apr-22 08:01N 39°13' W 076°32'4 8.9
2018-Apr-22 07:31N 39°11' W 076°27'612.1
2018-Apr-22 07:01N 39°05' W 076°24'714.4
2018-Apr-22 06:31N 38°58' W 076°23'917.9
2018-Apr-22 06:01N 38°49' W 076°25'918.0
2018-Apr-22 05:30N 38°40' W 076°25'917.7
2018-Apr-22 05:00N 38°31' W 076°25'918.1
2018-Apr-22 04:29N 38°23' W 076°20'1118.3
2018-Apr-22 03:54N 38°13' W 076°15'6816.1
2018-Apr-21 23:40N 37°04' W 076°06'215.2
2018-Apr-21 23:30N 37°03' W 076°04'713.7
2018-Apr-21 23:00N 36°57' W 075°59'4 8.9
2018-Apr-21 22:30N 36°55' W 075°54'4 8.3
2018-Apr-21 22:00N 36°52' W 075°50'5 8.7
2018-Apr-21 21:29N 36°50' W 075°46'17712.2
2018-Apr-21 07:00N 39°26' W 073°58'713.2
2018-Apr-21 06:29N 39°32' W 073°56'613.1
2018-Apr-21 06:00N 39°38' W 073°53'612.6
2018-Apr-21 05:30N 39°44' W 073°51'712.7
2018-Apr-21 04:59N 39°51' W 073°51'712.5
2018-Apr-21 04:27N 39°57' W 073°51'2410.8
2018-Apr-21 02:14N 40°21' W 073°49'2 9.1
2018-Apr-21 02:00N 40°24' W 073°49'4 8.8
2018-Apr-21 01:30N 40°28' W 073°51'5 9.6
2018-Apr-21 01:00N 40°30' W 073°57'612.6
2018-Apr-21 00:30N 40°35' W 074°02'5 9.8
2018-Apr-21 00:00N 40°39' W 074°05'3 5.9
2018-Apr-20 23:30N 40°39' W 074°09'1 2.9
2018-Apr-20 23:00N 40°40' W 074°08'0 0.2
2018-Apr-20 22:28N 40°40' W 074°09'0 0.0
2018-Apr-20 21:58N 40°40' W 074°09'0 0.0
2018-Apr-20 21:28N 40°40' W 074°09'0 0.0
2018-Apr-20 20:58N 40°40' W 074°09'0 0.0
2018-Apr-20 20:28N 40°40' W 074°09'0 0.0
2018-Apr-20 19:58N 40°40' W 074°09'0 0.0
2018-Apr-20 19:28N 40°40' W 074°09'0 0.0
2018-Apr-20 18:58N 40°40' W 074°09'0 0.0
2018-Apr-20 18:28N 40°40' W 074°09'0 0.0
2018-Apr-20 17:55N 40°40' W 074°09'0 0.0
2018-Apr-20 17:28N 40°40' W 074°09'0 0.0
2018-Apr-20 16:55N 40°40' W 074°09'0 0.0
2018-Apr-20 16:22N 40°40' W 074°09'0 0.0
2018-Apr-20 15:58N 40°40' W 074°09'0 0.0
2018-Apr-20 15:28N 40°40' W 074°09'0 0.0
2018-Apr-20 14:58N 40°40' W 074°09'0 0.0
2018-Apr-20 14:28N 40°40' W 074°09'0 0.0
2018-Apr-20 13:58N 40°40' W 074°09'0 0.0
2018-Apr-20 13:28N 40°40' W 074°09'0 0.0
2018-Apr-20 12:52N 40°40' W 074°09'0 0.0
2018-Apr-20 12:28N 40°40' W 074°09'0 0.0
2018-Apr-20 11:58N 40°40' W 074°09'0 0.0
2018-Apr-20 11:28N 40°40' W 074°09'0 0.0
2018-Apr-20 10:58N 40°40' W 074°09'0 0.0
2018-Apr-20 10:28N 40°40' W 074°09'0 0.0
2018-Apr-20 09:58N 40°40' W 074°09'0 0.0
2018-Apr-20 09:28N 40°40' W 074°09'0 0.0
2018-Apr-20 08:58N 40°40' W 074°09'0 0.0
2018-Apr-20 08:25N 40°40' W 074°09'0 0.0
2018-Apr-20 07:58N 40°40' W 074°09'0 0.0
2018-Apr-20 07:28N 40°40' W 074°09'0 0.0
2018-Apr-20 06:58N 40°40' W 074°09'0 0.0
2018-Apr-20 06:28N 40°40' W 074°09'0 0.0
2018-Apr-20 05:55N 40°40' W 074°09'0 0.0
2018-Apr-20 05:25N 40°40' W 074°09'0 0.0
2018-Apr-20 04:58N 40°40' W 074°09'0 0.0
2018-Apr-20 04:28N 40°40' W 074°09'0 0.0
2018-Apr-20 03:58N 40°40' W 074°09'0 0.0
2018-Apr-20 03:28N 40°40' W 074°09'0 0.0
2018-Apr-20 02:55N 40°40' W 074°09'0 0.0
2018-Apr-20 02:28N 40°40' W 074°09'0 0.0
2018-Apr-20 01:58N 40°40' W 074°09'0 0.0
2018-Apr-20 01:25N 40°40' W 074°09'0 0.0
2018-Apr-20 00:58N 40°40' W 074°09'0 0.0
2018-Apr-20 00:28N 40°40' W 074°09'0 0.0
2018-Apr-19 23:58N 40°40' W 074°09'0 0.0
2018-Apr-19 23:28N 40°40' W 074°09'0 0.0
2018-Apr-19 22:58N 40°40' W 074°09'0 0.0
2018-Apr-19 22:28N 40°40' W 074°09'0 0.0
2018-Apr-19 21:58N 40°40' W 074°09'0 0.0
2018-Apr-19 21:19N 40°40' W 074°09'0 0.0
2018-Apr-19 20:58N 40°40' W 074°09'0 0.0
2018-Apr-19 20:13N 40°40' W 074°09'0 0.0
2018-Apr-19 19:58N 40°40' W 074°09'0 0.0
2018-Apr-19 19:28N 40°40' W 074°09'0 0.0
2018-Apr-19 18:58N 40°40' W 074°09'0 0.0
2018-Apr-19 18:28N 40°40' W 074°09'0 0.0
2018-Apr-19 17:58N 40°40' W 074°09'0 0.0
2018-Apr-19 17:28N 40°40' W 074°09'0 0.0
2018-Apr-19 16:58N 40°40' W 074°09'0 0.0
2018-Apr-19 16:28N 40°40' W 074°09'0 0.0
2018-Apr-19 15:58N 40°40' W 074°09'0 0.0
2018-Apr-19 15:25N 40°40' W 074°09'0 0.0
2018-Apr-19 14:58N 40°40' W 074°09'0 0.0
2018-Apr-19 14:28N 40°40' W 074°09'0 0.0
2018-Apr-19 13:58N 40°40' W 074°09'0 0.0
2018-Apr-19 13:28N 40°40' W 074°09'0 0.0
2018-Apr-19 12:58N 40°40' W 074°09'0 0.0
2018-Apr-19 12:25N 40°40' W 074°09'0 0.0
2018-Apr-19 11:58N 40°40' W 074°09'0 0.0
2018-Apr-19 11:25N 40°40' W 074°09'0 0.0
2018-Apr-19 10:58N 40°40' W 074°09'0 0.0
2018-Apr-19 10:28N 40°40' W 074°09'0 0.0
2018-Apr-19 09:58N 40°40' W 074°09'0 0.0
2018-Apr-19 09:28N 40°40' W 074°09'0 0.0
2018-Apr-19 08:58N 40°40' W 074°09'0 0.0
2018-Apr-19 08:28N 40°40' W 074°09'0 0.0
2018-Apr-19 07:58N 40°40' W 074°09'0 0.0
2018-Apr-19 07:28N 40°40' W 074°09'0 0.0
2018-Apr-19 06:58N 40°40' W 074°09'0 0.0
2018-Apr-19 06:28N 40°40' W 074°09'0 0.0
2018-Apr-19 05:58N 40°40' W 074°09'0 0.0
2018-Apr-19 05:28N 40°40' W 074°09'0 0.0
2018-Apr-19 04:58N 40°40' W 074°09'0 0.0
2018-Apr-19 04:28N 40°40' W 074°09'0 0.0
2018-Apr-19 03:58N 40°40' W 074°09'0 0.0
2018-Apr-19 03:28N 40°40' W 074°09'0 0.0
2018-Apr-19 02:58N 40°40' W 074°09'0 0.0
2018-Apr-19 02:28N 40°40' W 074°09'0 0.0
2018-Apr-19 01:58N 40°40' W 074°09'0 0.0
2018-Apr-19 01:28N 40°40' W 074°09'0 0.0
2018-Apr-19 00:52N 40°40' W 074°09'0 0.0
2018-Apr-19 00:28N 40°40' W 074°09'0 0.0
2018-Apr-18 23:58N 40°40' W 074°09'0 0.0
2018-Apr-18 23:28N 40°40' W 074°09'0 0.0
2018-Apr-18 22:58N 40°40' W 074°09'0 0.0
2018-Apr-18 22:28N 40°40' W 074°09'0 0.0
2018-Apr-18 21:58N 40°40' W 074°09'0 0.0
2018-Apr-18 21:30N 40°40' W 074°09'1 2.9
2018-Apr-18 21:00N 40°39' W 074°08'3 5.5
2018-Apr-18 20:30N 40°39' W 074°05'3 6.9
2018-Apr-18 20:00N 40°36' W 074°03'612.3
2018-Apr-18 19:30N 40°31' W 073°59'713.7
2018-Apr-18 19:00N 40°28' W 073°50'3 6.8
2018-Apr-18 18:30N 40°25' W 073°47'3 6.2
2018-Apr-18 18:01N 40°23' W 073°46'5 8.7
2018-Apr-18 17:29N 40°18' W 073°45'5 9.6
2018-Apr-18 17:01N 40°13' W 073°45'29 8.8
2018-Apr-18 13:42N 39°45' W 073°39'2 8.7
2018-Apr-18 13:27N 39°42' W 073°39'5 8.9
2018-Apr-18 12:55N 39°38' W 073°39'  

Dump ship's entire track history